createdAt,value
2023-05-12T00:01:29.720Z,11.36
2023-05-12T00:06:33.336Z,11.31
2023-05-12T00:11:38.544Z,11.19
2023-05-12T00:16:42.355Z,11.10
2023-05-12T00:21:46.464Z,11.00
2023-05-12T00:26:50.093Z,10.88
2023-05-12T00:31:53.864Z,10.79
2023-05-12T00:36:57.749Z,10.80
2023-05-12T00:42:04.837Z,10.78
2023-05-12T00:47:09.658Z,10.72
2023-05-12T00:52:13.500Z,10.67
2023-05-12T00:57:19.694Z,10.63
2023-05-12T01:02:23.547Z,10.53
2023-05-12T01:07:28.458Z,10.45
2023-05-12T01:12:33.982Z,10.36
2023-05-12T01:17:43.702Z,10.32
2023-05-12T01:22:48.822Z,10.27
2023-05-12T01:27:53.399Z,10.23
2023-05-12T01:32:58.940Z,10.17
2023-05-12T01:38:03.541Z,10.11
2023-05-12T01:43:13.043Z,10.03
2023-05-12T01:48:16.709Z,9.96
2023-05-12T01:53:20.831Z,9.91
2023-05-12T01:58:25.456Z,9.88
2023-05-12T02:03:30.365Z,9.80
2023-05-12T02:08:34.359Z,9.73
2023-05-12T02:13:38.156Z,9.65
2023-05-12T02:18:42.465Z,9.58
2023-05-12T02:23:47.459Z,9.48
2023-05-12T02:28:51.781Z,9.39
2023-05-12T02:34:00.184Z,9.28
2023-05-12T02:39:04.179Z,9.18
2023-05-12T02:44:09.251Z,9.08
2023-05-12T02:49:13.388Z,8.99
2023-05-12T02:54:17.219Z,8.91
2023-05-12T02:59:23.758Z,8.85
2023-05-12T03:04:27.621Z,8.77
2023-05-12T03:09:31.377Z,8.70
2023-05-12T03:14:35.154Z,8.63
2023-05-12T03:19:39.111Z,8.60
2023-05-12T03:24:42.739Z,8.58
2023-05-12T03:29:46.459Z,8.60
2023-05-12T03:34:50.078Z,8.65
2023-05-12T03:39:56.351Z,8.75
2023-05-12T03:45:00.579Z,9.10
2023-05-12T03:50:04.633Z,9.24
2023-05-12T03:55:09.506Z,9.68
2023-05-12T04:00:14.003Z,10.05
2023-05-12T04:05:21.165Z,9.83
2023-05-12T04:10:24.905Z,10.66
2023-05-12T04:15:28.703Z,10.43
2023-05-12T04:20:32.558Z,11.34
2023-05-12T04:25:40.735Z,11.21
2023-05-12T04:30:44.627Z,11.34
2023-05-12T04:35:48.448Z,12.66
2023-05-12T04:40:53.733Z,14.22
2023-05-12T04:45:59.940Z,14.55
2023-05-12T04:51:07.164Z,13.25
2023-05-12T04:56:11.034Z,12.21
2023-05-12T05:01:16.586Z,11.99
2023-05-12T05:06:22.083Z,12.18
2023-05-12T05:11:28.477Z,12.06
2023-05-12T05:16:32.334Z,11.97
2023-05-12T05:21:36.317Z,12.06
2023-05-12T05:26:41.013Z,12.22
2023-05-12T05:31:45.184Z,12.51
2023-05-12T05:36:49.137Z,12.72
2023-05-12T05:41:53.086Z,12.92
2023-05-12T05:46:57.030Z,12.99
2023-05-12T05:52:02.804Z,13.19
2023-05-12T05:57:06.874Z,13.38
2023-05-12T06:02:11.261Z,13.45
2023-05-12T06:07:14.904Z,13.57
2023-05-12T06:12:19.398Z,13.68
2023-05-12T06:17:23.209Z,13.80
2023-05-12T06:22:26.928Z,14.03
2023-05-12T06:27:30.716Z,14.26
2023-05-12T06:32:34.525Z,14.38
2023-05-12T06:37:38.713Z,14.65
2023-05-12T06:42:42.329Z,14.75
2023-05-12T06:47:46.395Z,14.84
2023-05-12T06:52:50.827Z,15.05
2023-05-12T06:57:56.320Z,15.30
2023-05-12T07:03:00.116Z,15.29
2023-05-12T07:08:04.318Z,15.44
2023-05-12T07:13:08.144Z,15.59
2023-05-12T07:18:11.887Z,15.77
2023-05-12T07:23:16.994Z,15.87
2023-05-12T07:28:20.673Z,16.18
2023-05-12T07:33:24.377Z,16.45
2023-05-12T07:38:28.125Z,16.61
2023-05-12T07:43:31.754Z,16.72
2023-05-12T07:48:40.141Z,16.89
2023-05-12T07:53:43.996Z,17.09
2023-05-12T07:58:48.062Z,17.30
2023-05-12T08:03:52.042Z,17.36
2023-05-12T08:08:58.504Z,17.51
2023-05-12T08:14:02.404Z,17.54
2023-05-12T08:19:05.927Z,17.64
2023-05-12T08:24:09.843Z,17.82
2023-05-12T08:29:13.685Z,17.97
2023-05-12T08:34:17.459Z,17.97
2023-05-12T08:39:21.998Z,18.23
2023-05-12T08:44:26.064Z,18.45
2023-05-12T08:49:32.722Z,18.50
2023-05-12T08:54:48.656Z,18.66
2023-05-12T09:00:01.891Z,18.74
2023-05-12T09:05:06.024Z,18.82
2023-05-12T09:10:29.943Z,19.11
2023-05-12T09:15:46.250Z,19.25
2023-05-12T09:20:50.160Z,19.24
2023-05-12T09:26:05.678Z,19.21
2023-05-12T09:31:21.833Z,19.45
2023-05-12T09:36:26.262Z,19.72
2023-05-12T09:41:30.020Z,19.81
2023-05-12T09:46:34.201Z,19.75
2023-05-12T09:51:38.376Z,19.96
2023-05-12T09:56:44.769Z,20.02
2023-05-12T10:01:49.658Z,20.02
2023-05-12T10:06:54.250Z,20.38
2023-05-12T10:11:58.793Z,20.48
2023-05-12T10:17:03.177Z,20.52
2023-05-12T10:22:13.891Z,20.59
2023-05-12T10:27:18.569Z,20.68
2023-05-12T10:32:22.407Z,20.70
2023-05-12T10:37:29.596Z,20.77
2023-05-12T10:42:43.599Z,20.99
2023-05-12T10:47:47.448Z,21.00
2023-05-12T10:52:55.742Z,21.17
2023-05-12T10:58:13.397Z,21.33
2023-05-12T11:03:25.531Z,21.46
2023-05-12T11:08:30.877Z,21.70
2023-05-12T11:13:36.126Z,21.76
2023-05-12T11:18:39.897Z,21.53
2023-05-12T11:23:43.761Z,21.00
2023-05-12T11:28:48.167Z,20.95
2023-05-12T11:34:11.983Z,21.08
2023-05-12T11:39:23.451Z,21.63
2023-05-12T11:44:27.156Z,21.94
2023-05-12T11:49:31.832Z,21.78
2023-05-12T11:54:36.113Z,21.70
2023-05-12T11:59:39.847Z,21.51
2023-05-12T12:04:43.865Z,21.19
2023-05-12T12:09:47.625Z,21.50
2023-05-12T12:14:51.343Z,21.53
2023-05-12T12:19:55.041Z,21.29
2023-05-12T12:24:58.933Z,21.23
2023-05-12T12:30:03.229Z,21.17
2023-05-12T12:35:07.690Z,21.43
2023-05-12T12:40:12.523Z,21.47
2023-05-12T12:45:16.977Z,21.39
2023-05-12T12:50:23.895Z,21.45
2023-05-12T12:55:28.992Z,21.66
2023-05-12T13:00:33.234Z,21.68
2023-05-12T13:05:37.145Z,21.69
2023-05-12T13:10:42.386Z,21.52
2023-05-12T13:15:46.262Z,21.26
2023-05-12T13:20:50.195Z,21.15
2023-05-12T13:25:54.124Z,21.23
2023-05-12T13:30:58.521Z,21.47
2023-05-12T13:36:02.321Z,21.61
2023-05-12T13:41:06.104Z,21.60
2023-05-12T13:46:09.974Z,21.64
2023-05-12T13:51:14.657Z,21.73
2023-05-12T13:56:18.552Z,21.92
2023-05-12T14:01:22.485Z,22.12
2023-05-12T14:06:27.558Z,22.66
2023-05-12T14:11:31.384Z,22.64
2023-05-12T14:16:35.495Z,22.30
2023-05-12T14:21:41.375Z,22.41
2023-05-12T14:26:45.208Z,22.49
2023-05-12T14:31:49.040Z,22.43
2023-05-12T14:36:52.955Z,22.20
2023-05-12T14:41:56.771Z,22.09
2023-05-12T14:47:01.233Z,21.94
2023-05-12T14:52:06.029Z,21.86
2023-05-12T14:57:10.894Z,21.80
2023-05-12T15:02:14.664Z,21.81
2023-05-12T15:07:18.363Z,21.78
2023-05-12T15:12:22.480Z,21.45
2023-05-12T15:17:27.741Z,21.33
2023-05-12T15:22:33.758Z,21.48
2023-05-12T15:27:37.791Z,21.61
2023-05-12T15:32:43.212Z,21.51
2023-05-12T15:37:47.141Z,21.74
2023-05-12T15:42:50.931Z,21.91
2023-05-12T15:47:54.926Z,22.11
2023-05-12T15:52:58.982Z,22.25
2023-05-12T15:58:03.930Z,22.28
2023-05-12T16:03:08.278Z,22.27
2023-05-12T16:08:14.472Z,22.00
2023-05-12T16:13:18.252Z,21.85
2023-05-12T16:18:22.113Z,21.65
2023-05-12T16:23:26.649Z,21.35
2023-05-12T16:28:32.381Z,21.08
2023-05-12T16:33:36.357Z,20.96
2023-05-12T16:38:40.229Z,20.91
2023-05-12T16:43:46.141Z,20.93
2023-05-12T16:48:51.190Z,21.64
2023-05-12T16:53:55.051Z,22.86
2023-05-12T16:59:00.604Z,23.61
2023-05-12T17:04:04.606Z,23.86
2023-05-12T17:09:08.703Z,24.05
2023-05-12T17:14:12.897Z,24.17
2023-05-12T17:19:16.604Z,24.02
2023-05-12T17:24:21.064Z,23.22
2023-05-12T17:29:24.785Z,23.03
2023-05-12T17:34:36.954Z,22.65
2023-05-12T17:39:42.784Z,21.68
2023-05-12T17:44:46.723Z,20.93
2023-05-12T17:49:52.861Z,20.43
2023-05-12T17:54:58.020Z,20.27
2023-05-12T18:00:10.250Z,19.58
2023-05-12T18:05:22.077Z,19.02
2023-05-12T18:10:26.245Z,18.63
2023-05-12T18:15:30.719Z,18.26
2023-05-12T18:20:37.749Z,17.93
2023-05-12T18:25:44.256Z,17.67
2023-05-12T18:30:48.145Z,17.42
2023-05-12T18:35:52.188Z,17.21
2023-05-12T18:40:56.848Z,16.98
2023-05-12T18:46:01.866Z,16.77
2023-05-12T18:51:06.438Z,16.57
2023-05-12T18:56:10.861Z,16.34
2023-05-12T19:01:15.161Z,16.18
2023-05-12T19:06:19.099Z,16.01
2023-05-12T19:11:23.267Z,15.81
2023-05-12T19:16:27.381Z,15.63
2023-05-12T19:21:33.139Z,15.45
2023-05-12T19:26:38.139Z,15.34
2023-05-12T19:31:42.508Z,15.20
2023-05-12T19:36:47.246Z,15.08
2023-05-12T19:41:52.252Z,14.99
2023-05-12T19:47:00.160Z,14.90
2023-05-12T19:52:06.136Z,14.79
2023-05-12T19:57:10.537Z,14.63
2023-05-12T20:02:19.836Z,14.45
2023-05-12T20:07:23.856Z,14.27
2023-05-12T20:12:28.027Z,14.12
2023-05-12T20:17:31.884Z,13.98
2023-05-12T20:22:35.649Z,13.84
2023-05-12T20:27:39.398Z,13.72
2023-05-12T20:32:44.235Z,13.59
2023-05-12T20:37:49.061Z,13.51
2023-05-12T20:42:53.185Z,13.36
2023-05-12T20:47:57.058Z,13.24
2023-05-12T20:53:01.356Z,13.10
2023-05-12T20:58:05.071Z,12.98
2023-05-12T21:03:14.741Z,12.91
2023-05-12T21:08:19.198Z,12.82
2023-05-12T21:13:23.045Z,12.76
2023-05-12T21:18:27.333Z,12.69
2023-05-12T21:23:31.442Z,12.65
2023-05-12T21:28:35.125Z,12.60
2023-05-12T21:33:39.662Z,12.53
2023-05-12T21:38:43.636Z,12.47
2023-05-12T21:43:50.229Z,12.42
2023-05-12T21:48:54.314Z,12.31
2023-05-12T21:53:58.818Z,12.19
2023-05-12T21:59:03.885Z,12.12
2023-05-12T22:04:08.046Z,12.10
2023-05-12T22:09:12.031Z,12.08
2023-05-12T22:14:16.605Z,12.07
2023-05-12T22:19:20.233Z,12.07
2023-05-12T22:24:24.218Z,12.00
2023-05-12T22:29:27.958Z,11.99
2023-05-12T22:34:31.697Z,11.93
2023-05-12T22:39:35.302Z,11.84
2023-05-12T22:44:39.478Z,11.79
2023-05-12T22:49:43.757Z,11.75
2023-05-12T22:54:47.451Z,11.73
2023-05-12T22:59:51.465Z,11.67
2023-05-12T23:04:55.900Z,11.60
2023-05-12T23:09:59.741Z,11.51
2023-05-12T23:15:05.477Z,11.51
2023-05-12T23:20:10.319Z,11.51
2023-05-12T23:25:14.045Z,11.52
2023-05-12T23:30:17.955Z,11.47
2023-05-12T23:35:21.627Z,11.43
2023-05-12T23:40:25.396Z,11.38
2023-05-12T23:45:29.199Z,11.30
2023-05-12T23:50:32.962Z,11.21
2023-05-12T23:55:37.782Z,11.16
